sensor_id;sensor_type;location;lat;lon;timestamp;P1;durP1;ratioP1;P2;durP2;ratioP2
24259;SDS011;12384;48.112;18.418;2023-03-31T00:01:08;25.67;;;23.47;;
24259;SDS011;12384;48.112;18.418;2023-03-31T00:03:36;25.53;;;23.43;;
24259;SDS011;12384;48.112;18.418;2023-03-31T00:06:12;25.30;;;23.30;;
24259;SDS011;12384;48.112;18.418;2023-03-31T00:08:44;25.07;;;22.87;;
24259;SDS011;12384;48.112;18.418;2023-03-31T00:11:18;24.40;;;22.40;;
24259;SDS011;12384;48.112;18.418;2023-03-31T00:13:48;24.17;;;22.17;;
24259;SDS011;12384;48.112;18.418;2023-03-31T00:16:16;26.00;;;23.90;;
24259;SDS011;12384;48.112;18.418;2023-03-31T00:18:44;25.40;;;23.30;;
24259;SDS011;12384;48.112;18.418;2023-03-31T00:21:18;27.07;;;24.77;;
24259;SDS011;12384;48.112;18.418;2023-03-31T00:23:52;26.20;;;23.80;;
24259;SDS011;12384;48.112;18.418;2023-03-31T00:26:22;24.33;;;22.43;;
24259;SDS011;12384;48.112;18.418;2023-03-31T00:28:51;25.37;;;23.27;;
24259;SDS011;12384;48.112;18.418;2023-03-31T00:31:21;24.93;;;22.93;;
24259;SDS011;12384;48.112;18.418;2023-03-31T00:33:50;23.77;;;21.87;;
24259;SDS011;12384;48.112;18.418;2023-03-31T00:36:20;24.00;;;22.10;;
24259;SDS011;12384;48.112;18.418;2023-03-31T00:38:53;27.13;;;24.77;;
24259;SDS011;12384;48.112;18.418;2023-03-31T00:41:22;25.50;;;23.40;;
24259;SDS011;12384;48.112;18.418;2023-03-31T00:44:07;25.67;;;23.50;;
24259;SDS011;12384;48.112;18.418;2023-03-31T00:46:43;26.23;;;24.07;;
24259;SDS011;12384;48.112;18.418;2023-03-31T00:49:19;25.73;;;23.53;;
24259;SDS011;12384;48.112;18.418;2023-03-31T00:51:54;25.67;;;23.57;;
24259;SDS011;12384;48.112;18.418;2023-03-31T00:54:29;26.43;;;24.23;;
24259;SDS011;12384;48.112;18.418;2023-03-31T00:56:59;27.27;;;24.97;;
24259;SDS011;12384;48.112;18.418;2023-03-31T00:59:29;27.00;;;24.77;;
24259;SDS011;12384;48.112;18.418;2023-03-31T01:02:01;28.17;;;25.67;;
24259;SDS011;12384;48.112;18.418;2023-03-31T01:04:32;27.83;;;25.53;;
24259;SDS011;12384;48.112;18.418;2023-03-31T01:07:08;29.03;;;26.53;;
24259;SDS011;12384;48.112;18.418;2023-03-31T01:09:43;28.03;;;25.63;;
24259;SDS011;12384;48.112;18.418;2023-03-31T01:12:14;29.47;;;26.97;;
24259;SDS011;12384;48.112;18.418;2023-03-31T01:14:45;30.97;;;28.20;;
24259;SDS011;12384;48.112;18.418;2023-03-31T01:17:13;31.47;;;28.60;;
24259;SDS011;12384;48.112;18.418;2023-03-31T01:19:51;31.33;;;28.53;;
24259;SDS011;12384;48.112;18.418;2023-03-31T01:22:50;30.93;;;28.10;;
24259;SDS011;12384;48.112;18.418;2023-03-31T01:28:44;31.30;;;28.47;;
24259;SDS011;12384;48.112;18.418;2023-03-31T01:31:32;29.77;;;27.23;;
24259;SDS011;12384;48.112;18.418;2023-03-31T01:34:39;30.57;;;27.87;;
24259;SDS011;12384;48.112;18.418;2023-03-31T01:37:41;30.23;;;27.43;;
24259;SDS011;12384;48.112;18.418;2023-03-31T01:43:35;33.67;;;30.50;;
24259;SDS011;12384;48.112;18.418;2023-03-31T01:46:09;34.23;;;31.03;;
24259;SDS011;12384;48.112;18.418;2023-03-31T01:48:47;33.57;;;30.33;;
24259;SDS011;12384;48.112;18.418;2023-03-31T01:51:28;34.00;;;30.83;;
24259;SDS011;12384;48.112;18.418;2023-03-31T01:54:03;33.33;;;30.30;;
24259;SDS011;12384;48.112;18.418;2023-03-31T01:56:42;33.00;;;29.97;;
24259;SDS011;12384;48.112;18.418;2023-03-31T01:59:15;33.07;;;30.17;;
24259;SDS011;12384;48.112;18.418;2023-03-31T02:01:46;30.97;;;28.20;;
24259;SDS011;12384;48.112;18.418;2023-03-31T02:04:21;33.90;;;30.73;;
24259;SDS011;12384;48.112;18.418;2023-03-31T02:06:54;31.87;;;28.97;;
24259;SDS011;12384;48.112;18.418;2023-03-31T02:09:27;30.77;;;27.87;;
24259;SDS011;12384;48.112;18.418;2023-03-31T02:11:59;31.80;;;28.90;;
24259;SDS011;12384;48.112;18.418;2023-03-31T02:14:33;31.23;;;28.40;;
24259;SDS011;12384;48.112;18.418;2023-03-31T02:17:05;30.47;;;27.77;;
24259;SDS011;12384;48.112;18.418;2023-03-31T02:19:39;29.97;;;27.30;;
24259;SDS011;12384;48.112;18.418;2023-03-31T02:22:10;33.17;;;30.10;;
24259;SDS011;12384;48.112;18.418;2023-03-31T02:24:40;35.73;;;32.37;;
24259;SDS011;12384;48.112;18.418;2023-03-31T02:27:13;34.97;;;31.60;;
24259;SDS011;12384;48.112;18.418;2023-03-31T02:29:45;34.57;;;31.23;;
24259;SDS011;12384;48.112;18.418;2023-03-31T02:32:15;35.87;;;32.40;;
24259;SDS011;12384;48.112;18.418;2023-03-31T02:34:51;35.57;;;32.17;;
24259;SDS011;12384;48.112;18.418;2023-03-31T02:37:21;33.17;;;29.60;;
24259;SDS011;12384;48.112;18.418;2023-03-31T02:39:49;33.93;;;30.83;;
24259;SDS011;12384;48.112;18.418;2023-03-31T02:42:22;32.93;;;29.93;;
24259;SDS011;12384;48.112;18.418;2023-03-31T02:44:52;32.73;;;29.57;;
24259;SDS011;12384;48.112;18.418;2023-03-31T02:47:20;32.10;;;29.20;;
24259;SDS011;12384;48.112;18.418;2023-03-31T02:49:50;30.20;;;27.50;;
24259;SDS011;12384;48.112;18.418;2023-03-31T02:52:26;28.97;;;26.47;;
24259;SDS011;12384;48.112;18.418;2023-03-31T02:55:13;28.67;;;26.17;;
24259;SDS011;12384;48.112;18.418;2023-03-31T02:58:04;27.77;;;25.37;;
24259;SDS011;12384;48.112;18.418;2023-03-31T03:00:52;27.00;;;24.77;;
24259;SDS011;12384;48.112;18.418;2023-03-31T03:03:34;29.73;;;27.10;;
24259;SDS011;12384;48.112;18.418;2023-03-31T03:06:14;31.20;;;28.43;;
24259;SDS011;12384;48.112;18.418;2023-03-31T03:09:06;31.53;;;28.73;;
24259;SDS011;12384;48.112;18.418;2023-03-31T03:11:44;28.73;;;26.03;;
24259;SDS011;12384;48.112;18.418;2023-03-31T03:14:18;28.90;;;26.20;;
24259;SDS011;12384;48.112;18.418;2023-03-31T03:16:56;28.90;;;26.03;;
24259;SDS011;12384;48.112;18.418;2023-03-31T03:19:28;91.73;;;29.60;;
24259;SDS011;12384;48.112;18.418;2023-03-31T03:21:57;43.23;;;26.40;;
24259;SDS011;12384;48.112;18.418;2023-03-31T03:24:25;46.07;;;24.40;;
24259;SDS011;12384;48.112;18.418;2023-03-31T03:26:55;32.03;;;23.83;;
24259;SDS011;12384;48.112;18.418;2023-03-31T03:29:25;51.60;;;22.93;;
24259;SDS011;12384;48.112;18.418;2023-03-31T03:31:54;25.73;;;23.00;;
24259;SDS011;12384;48.112;18.418;2023-03-31T03:34:22;23.87;;;21.90;;
24259;SDS011;12384;48.112;18.418;2023-03-31T03:36:52;23.97;;;22.07;;
24259;SDS011;12384;48.112;18.418;2023-03-31T03:39:21;24.63;;;22.27;;
24259;SDS011;12384;48.112;18.418;2023-03-31T03:41:49;22.63;;;20.93;;
24259;SDS011;12384;48.112;18.418;2023-03-31T03:44:18;22.97;;;20.77;;
24259;SDS011;12384;48.112;18.418;2023-03-31T03:46:47;22.90;;;21.10;;
24259;SDS011;12384;48.112;18.418;2023-03-31T03:49:16;23.37;;;21.57;;
24259;SDS011;12384;48.112;18.418;2023-03-31T03:51:44;22.87;;;20.80;;
24259;SDS011;12384;48.112;18.418;2023-03-31T03:54:13;22.10;;;20.47;;
24259;SDS011;12384;48.112;18.418;2023-03-31T03:56:41;23.27;;;21.00;;
24259;SDS011;12384;48.112;18.418;2023-03-31T03:59:10;22.30;;;20.70;;
24259;SDS011;12384;48.112;18.418;2023-03-31T04:01:39;21.87;;;20.30;;
24259;SDS011;12384;48.112;18.418;2023-03-31T04:04:09;21.27;;;19.67;;
24259;SDS011;12384;48.112;18.418;2023-03-31T04:06:37;21.73;;;20.10;;
24259;SDS011;12384;48.112;18.418;2023-03-31T04:09:06;27.37;;;21.53;;
24259;SDS011;12384;48.112;18.418;2023-03-31T04:11:34;22.43;;;20.83;;
24259;SDS011;12384;48.112;18.418;2023-03-31T04:14:03;24.10;;;22.10;;
24259;SDS011;12384;48.112;18.418;2023-03-31T04:16:31;24.93;;;21.83;;
24259;SDS011;12384;48.112;18.418;2023-03-31T04:19:00;22.97;;;21.17;;
24259;SDS011;12384;48.112;18.418;2023-03-31T04:21:31;21.93;;;20.40;;
24259;SDS011;12384;48.112;18.418;2023-03-31T04:24:01;22.20;;;20.30;;
24259;SDS011;12384;48.112;18.418;2023-03-31T04:26:30;47.10;;;24.77;;
24259;SDS011;12384;48.112;18.418;2023-03-31T04:29:09;25.00;;;22.77;;
24259;SDS011;12384;48.112;18.418;2023-03-31T04:31:39;24.73;;;22.60;;
24259;SDS011;12384;48.112;18.418;2023-03-31T04:34:10;23.03;;;21.33;;
24259;SDS011;12384;48.112;18.418;2023-03-31T04:36:41;23.23;;;21.43;;
24259;SDS011;12384;48.112;18.418;2023-03-31T04:39:13;23.97;;;22.17;;
24259;SDS011;12384;48.112;18.418;2023-03-31T04:41:42;25.43;;;23.10;;
24259;SDS011;12384;48.112;18.418;2023-03-31T04:44:11;23.40;;;21.60;;
24259;SDS011;12384;48.112;18.418;2023-03-31T04:46:40;23.83;;;21.97;;
24259;SDS011;12384;48.112;18.418;2023-03-31T04:49:08;22.67;;;21.07;;
24259;SDS011;12384;48.112;18.418;2023-03-31T04:51:37;23.33;;;21.60;;
24259;SDS011;12384;48.112;18.418;2023-03-31T04:54:06;23.13;;;21.33;;
24259;SDS011;12384;48.112;18.418;2023-03-31T04:56:35;23.13;;;21.33;;
24259;SDS011;12384;48.112;18.418;2023-03-31T04:59:03;22.50;;;20.70;;
24259;SDS011;12384;48.112;18.418;2023-03-31T05:01:33;25.90;;;23.40;;
24259;SDS011;12384;48.112;18.418;2023-03-31T05:04:02;28.67;;;25.70;;
24259;SDS011;12384;48.112;18.418;2023-03-31T05:06:32;26.77;;;24.43;;
24259;SDS011;12384;48.112;18.418;2023-03-31T05:09:00;28.33;;;25.43;;
24259;SDS011;12384;48.112;18.418;2023-03-31T05:11:30;25.80;;;23.60;;
24259;SDS011;12384;48.112;18.418;2023-03-31T05:13:58;26.17;;;23.83;;
24259;SDS011;12384;48.112;18.418;2023-03-31T05:16:27;24.40;;;22.30;;
24259;SDS011;12384;48.112;18.418;2023-03-31T05:18:56;26.17;;;23.30;;
24259;SDS011;12384;48.112;18.418;2023-03-31T05:21:24;24.63;;;22.23;;
24259;SDS011;12384;48.112;18.418;2023-03-31T05:23:56;23.43;;;21.27;;
24259;SDS011;12384;48.112;18.418;2023-03-31T05:26:24;20.20;;;18.43;;
24259;SDS011;12384;48.112;18.418;2023-03-31T05:28:54;19.37;;;17.77;;
24259;SDS011;12384;48.112;18.418;2023-03-31T05:31:23;18.00;;;16.60;;
24259;SDS011;12384;48.112;18.418;2023-03-31T05:33:51;16.40;;;15.10;;
24259;SDS011;12384;48.112;18.418;2023-03-31T05:36:20;16.20;;;15.00;;
24259;SDS011;12384;48.112;18.418;2023-03-31T05:38:49;13.73;;;12.77;;
24259;SDS011;12384;48.112;18.418;2023-03-31T05:41:18;13.37;;;12.47;;
24259;SDS011;12384;48.112;18.418;2023-03-31T05:43:47;12.83;;;12.03;;
24259;SDS011;12384;48.112;18.418;2023-03-31T05:46:17;13.10;;;12.20;;
24259;SDS011;12384;48.112;18.418;2023-03-31T05:48:45;12.70;;;11.80;;
24259;SDS011;12384;48.112;18.418;2023-03-31T05:51:14;11.83;;;11.03;;
24259;SDS011;12384;48.112;18.418;2023-03-31T05:53:42;12.27;;;11.47;;
24259;SDS011;12384;48.112;18.418;2023-03-31T05:56:11;12.20;;;11.50;;
24259;SDS011;12384;48.112;18.418;2023-03-31T05:58:39;10.73;;;10.03;;
24259;SDS011;12384;48.112;18.418;2023-03-31T06:01:09;10.30;;;9.70;;
24259;SDS011;12384;48.112;18.418;2023-03-31T06:03:44;10.20;;;9.60;;
24259;SDS011;12384;48.112;18.418;2023-03-31T06:06:14;11.17;;;10.47;;
24259;SDS011;12384;48.112;18.418;2023-03-31T06:08:44;12.00;;;11.30;;
24259;SDS011;12384;48.112;18.418;2023-03-31T06:11:15;12.07;;;11.37;;
24259;SDS011;12384;48.112;18.418;2023-03-31T06:13:45;11.67;;;10.97;;
24259;SDS011;12384;48.112;18.418;2023-03-31T06:16:14;12.30;;;11.60;;
24259;SDS011;12384;48.112;18.418;2023-03-31T06:18:45;11.57;;;10.87;;
24259;SDS011;12384;48.112;18.418;2023-03-31T06:21:14;12.10;;;11.40;;
24259;SDS011;12384;48.112;18.418;2023-03-31T06:23:44;12.63;;;11.93;;
24259;SDS011;12384;48.112;18.418;2023-03-31T06:26:13;11.73;;;11.10;;
24259;SDS011;12384;48.112;18.418;2023-03-31T06:28:43;12.77;;;12.07;;
24259;SDS011;12384;48.112;18.418;2023-03-31T06:31:12;13.97;;;13.17;;
24259;SDS011;12384;48.112;18.418;2023-03-31T06:33:42;13.87;;;12.97;;
24259;SDS011;12384;48.112;18.418;2023-03-31T06:36:13;14.90;;;13.90;;
24259;SDS011;12384;48.112;18.418;2023-03-31T06:38:44;13.77;;;12.87;;
24259;SDS011;12384;48.112;18.418;2023-03-31T06:41:13;12.93;;;12.13;;
24259;SDS011;12384;48.112;18.418;2023-03-31T06:43:43;13.67;;;12.77;;
24259;SDS011;12384;48.112;18.418;2023-03-31T06:46:12;11.57;;;10.67;;
24259;SDS011;12384;48.112;18.418;2023-03-31T06:48:41;11.60;;;10.90;;
24259;SDS011;12384;48.112;18.418;2023-03-31T06:51:11;11.73;;;11.03;;
24259;SDS011;12384;48.112;18.418;2023-03-31T06:53:40;11.30;;;10.60;;
24259;SDS011;12384;48.112;18.418;2023-03-31T06:56:08;12.80;;;11.90;;
24259;SDS011;12384;48.112;18.418;2023-03-31T06:58:37;12.70;;;11.83;;
24259;SDS011;12384;48.112;18.418;2023-03-31T07:01:05;13.37;;;12.47;;
24259;SDS011;12384;48.112;18.418;2023-03-31T07:03:34;13.37;;;12.47;;
24259;SDS011;12384;48.112;18.418;2023-03-31T07:06:03;12.87;;;11.97;;
24259;SDS011;12384;48.112;18.418;2023-03-31T07:08:33;14.43;;;13.43;;
24259;SDS011;12384;48.112;18.418;2023-03-31T07:11:01;14.80;;;13.70;;
24259;SDS011;12384;48.112;18.418;2023-03-31T07:13:31;15.10;;;13.90;;
24259;SDS011;12384;48.112;18.418;2023-03-31T07:16:00;15.50;;;14.40;;
24259;SDS011;12384;48.112;18.418;2023-03-31T07:18:31;15.50;;;14.40;;
24259;SDS011;12384;48.112;18.418;2023-03-31T07:21:01;15.67;;;14.47;;
24259;SDS011;12384;48.112;18.418;2023-03-31T07:23:36;15.07;;;14.07;;
24259;SDS011;12384;48.112;18.418;2023-03-31T07:26:05;14.33;;;13.33;;
24259;SDS011;12384;48.112;18.418;2023-03-31T07:28:34;15.30;;;14.30;;
24259;SDS011;12384;48.112;18.418;2023-03-31T07:31:08;16.27;;;15.07;;
24259;SDS011;12384;48.112;18.418;2023-03-31T07:33:38;15.63;;;14.53;;
24259;SDS011;12384;48.112;18.418;2023-03-31T07:36:07;14.90;;;13.87;;
24259;SDS011;12384;48.112;18.418;2023-03-31T07:38:40;15.23;;;14.13;;
24259;SDS011;12384;48.112;18.418;2023-03-31T07:41:11;14.87;;;13.87;;
24259;SDS011;12384;48.112;18.418;2023-03-31T07:43:41;14.30;;;13.30;;
24259;SDS011;12384;48.112;18.418;2023-03-31T07:46:13;15.13;;;14.10;;
24259;SDS011;12384;48.112;18.418;2023-03-31T07:48:44;15.53;;;14.43;;
24259;SDS011;12384;48.112;18.418;2023-03-31T07:51:13;16.40;;;15.30;;
24259;SDS011;12384;48.112;18.418;2023-03-31T07:53:44;17.43;;;16.13;;
24259;SDS011;12384;48.112;18.418;2023-03-31T07:56:14;17.63;;;16.33;;
24259;SDS011;12384;48.112;18.418;2023-03-31T07:58:45;16.73;;;15.60;;
24259;SDS011;12384;48.112;18.418;2023-03-31T08:01:14;17.93;;;16.63;;
24259;SDS011;12384;48.112;18.418;2023-03-31T08:03:44;19.30;;;17.90;;
24259;SDS011;12384;48.112;18.418;2023-03-31T08:06:16;18.90;;;17.50;;
24259;SDS011;12384;48.112;18.418;2023-03-31T08:08:46;19.20;;;17.80;;
24259;SDS011;12384;48.112;18.418;2023-03-31T08:11:15;18.70;;;17.20;;
24259;SDS011;12384;48.112;18.418;2023-03-31T08:13:45;19.10;;;17.53;;
24259;SDS011;12384;48.112;18.418;2023-03-31T08:16:14;19.50;;;18.00;;
24259;SDS011;12384;48.112;18.418;2023-03-31T08:18:43;18.97;;;17.57;;
24259;SDS011;12384;48.112;18.418;2023-03-31T08:21:11;17.57;;;16.27;;
24259;SDS011;12384;48.112;18.418;2023-03-31T08:23:40;17.57;;;16.17;;
24259;SDS011;12384;48.112;18.418;2023-03-31T08:26:11;15.63;;;14.43;;
24259;SDS011;12384;48.112;18.418;2023-03-31T08:28:43;16.30;;;15.10;;
24259;SDS011;12384;48.112;18.418;2023-03-31T08:31:14;14.77;;;13.67;;
24259;SDS011;12384;48.112;18.418;2023-03-31T08:33:44;14.93;;;13.77;;
24259;SDS011;12384;48.112;18.418;2023-03-31T08:36:13;14.53;;;13.50;;
24259;SDS011;12384;48.112;18.418;2023-03-31T08:38:42;13.90;;;12.90;;
24259;SDS011;12384;48.112;18.418;2023-03-31T08:41:19;15.03;;;13.77;;
24259;SDS011;12384;48.112;18.418;2023-03-31T08:44:00;12.60;;;11.57;;
24259;SDS011;12384;48.112;18.418;2023-03-31T08:46:31;16.20;;;14.90;;
24259;SDS011;12384;48.112;18.418;2023-03-31T08:49:02;13.93;;;12.83;;
24259;SDS011;12384;48.112;18.418;2023-03-31T08:51:32;12.43;;;11.60;;
24259;SDS011;12384;48.112;18.418;2023-03-31T08:54:06;13.57;;;12.57;;
24259;SDS011;12384;48.112;18.418;2023-03-31T08:56:43;12.07;;;11.30;;
24259;SDS011;12384;48.112;18.418;2023-03-31T08:59:17;13.82;;;12.75;;
24259;SDS011;12384;48.112;18.418;2023-03-31T09:01:55;15.00;;;13.67;;
24259;SDS011;12384;48.112;18.418;2023-03-31T09:07:34;12.37;;;11.47;;
24259;SDS011;12384;48.112;18.418;2023-03-31T09:10:18;14.45;;;13.05;;
24259;SDS011;12384;48.112;18.418;2023-03-31T09:12:59;12.48;;;11.57;;
24259;SDS011;12384;48.112;18.418;2023-03-31T09:15:31;11.77;;;10.98;;
24259;SDS011;12384;48.112;18.418;2023-03-31T09:18:10;12.02;;;11.23;;
24259;SDS011;12384;48.112;18.418;2023-03-31T09:20:45;11.47;;;10.67;;
24259;SDS011;12384;48.112;18.418;2023-03-31T09:23:20;11.47;;;10.77;;
24259;SDS011;12384;48.112;18.418;2023-03-31T09:25:54;12.80;;;11.87;;
24259;SDS011;12384;48.112;18.418;2023-03-31T09:28:28;11.60;;;10.80;;
24259;SDS011;12384;48.112;18.418;2023-03-31T09:31:01;13.03;;;12.07;;
24259;SDS011;12384;48.112;18.418;2023-03-31T09:33:34;12.87;;;11.87;;
24259;SDS011;12384;48.112;18.418;2023-03-31T09:36:07;12.20;;;11.30;;
24259;SDS011;12384;48.112;18.418;2023-03-31T09:38:42;13.47;;;12.40;;
24259;SDS011;12384;48.112;18.418;2023-03-31T09:41:12;15.23;;;14.07;;
24259;SDS011;12384;48.112;18.418;2023-03-31T09:43:44;14.23;;;13.13;;
24259;SDS011;12384;48.112;18.418;2023-03-31T09:46:16;12.67;;;11.67;;
24259;SDS011;12384;48.112;18.418;2023-03-31T09:48:51;12.33;;;11.40;;
24259;SDS011;12384;48.112;18.418;2023-03-31T09:51:26;11.33;;;10.53;;
24259;SDS011;12384;48.112;18.418;2023-03-31T09:54:00;12.20;;;11.30;;
24259;SDS011;12384;48.112;18.418;2023-03-31T09:56:43;12.30;;;11.20;;
24259;SDS011;12384;48.112;18.418;2023-03-31T09:59:16;11.60;;;10.90;;
24259;SDS011;12384;48.112;18.418;2023-03-31T10:01:48;11.70;;;10.90;;
24259;SDS011;12384;48.112;18.418;2023-03-31T10:04:20;11.60;;;10.80;;
24259;SDS011;12384;48.112;18.418;2023-03-31T10:06:50;11.67;;;10.67;;
24259;SDS011;12384;48.112;18.418;2023-03-31T10:09:20;12.17;;;11.10;;
24259;SDS011;12384;48.112;18.418;2023-03-31T10:11:56;10.50;;;9.87;;
24259;SDS011;12384;48.112;18.418;2023-03-31T10:14:31;10.87;;;10.17;;
24259;SDS011;12384;48.112;18.418;2023-03-31T10:17:04;11.27;;;10.47;;
24259;SDS011;12384;48.112;18.418;2023-03-31T10:19:34;10.10;;;9.40;;
24259;SDS011;12384;48.112;18.418;2023-03-31T10:22:05;11.33;;;10.50;;
24259;SDS011;12384;48.112;18.418;2023-03-31T10:24:42;10.60;;;9.90;;
24259;SDS011;12384;48.112;18.418;2023-03-31T10:27:15;9.40;;;8.80;;
24259;SDS011;12384;48.112;18.418;2023-03-31T10:29:51;10.07;;;9.33;;
24259;SDS011;12384;48.112;18.418;2023-03-31T10:32:22;10.68;;;9.98;;
24259;SDS011;12384;48.112;18.418;2023-03-31T10:34:55;10.60;;;9.80;;
24259;SDS011;12384;48.112;18.418;2023-03-31T10:37:25;10.80;;;10.00;;
24259;SDS011;12384;48.112;18.418;2023-03-31T10:39:55;11.20;;;10.50;;
24259;SDS011;12384;48.112;18.418;2023-03-31T10:42:25;11.18;;;10.27;;
24259;SDS011;12384;48.112;18.418;2023-03-31T10:48:03;13.03;;;11.83;;
24259;SDS011;12384;48.112;18.418;2023-03-31T10:50:35;11.00;;;10.10;;
24259;SDS011;12384;48.112;18.418;2023-03-31T10:53:03;10.97;;;10.17;;
24259;SDS011;12384;48.112;18.418;2023-03-31T10:55:35;12.60;;;11.40;;
24259;SDS011;12384;48.112;18.418;2023-03-31T10:58:13;11.90;;;10.80;;
24259;SDS011;12384;48.112;18.418;2023-03-31T11:00:57;13.07;;;12.07;;
24259;SDS011;12384;48.112;18.418;2023-03-31T11:03:44;12.97;;;11.87;;
24259;SDS011;12384;48.112;18.418;2023-03-31T11:06:25;13.40;;;12.17;;
24259;SDS011;12384;48.112;18.418;2023-03-31T11:08:59;11.90;;;11.10;;
24259;SDS011;12384;48.112;18.418;2023-03-31T11:11:50;11.60;;;10.70;;
24259;SDS011;12384;48.112;18.418;2023-03-31T11:14:31;11.50;;;10.70;;
24259;SDS011;12384;48.112;18.418;2023-03-31T11:17:11;12.23;;;11.17;;
24259;SDS011;12384;48.112;18.418;2023-03-31T11:19:53;15.37;;;13.97;;
24259;SDS011;12384;48.112;18.418;2023-03-31T11:22:33;12.97;;;11.87;;
24259;SDS011;12384;48.112;18.418;2023-03-31T11:25:11;12.23;;;11.13;;
24259;SDS011;12384;48.112;18.418;2023-03-31T11:27:51;12.63;;;11.60;;
24259;SDS011;12384;48.112;18.418;2023-03-31T11:30:30;10.97;;;10.20;;
24259;SDS011;12384;48.112;18.418;2023-03-31T11:33:12;10.90;;;10.10;;
24259;SDS011;12384;48.112;18.418;2023-03-31T11:35:56;10.90;;;10.13;;
24259;SDS011;12384;48.112;18.418;2023-03-31T11:38:36;11.27;;;10.47;;
24259;SDS011;12384;48.112;18.418;2023-03-31T11:41:13;12.17;;;11.07;;
24259;SDS011;12384;48.112;18.418;2023-03-31T11:43:46;11.23;;;10.43;;
24259;SDS011;12384;48.112;18.418;2023-03-31T11:46:17;11.43;;;10.57;;
24259;SDS011;12384;48.112;18.418;2023-03-31T11:48:51;11.27;;;10.47;;
24259;SDS011;12384;48.112;18.418;2023-03-31T11:51:25;12.80;;;11.60;;
24259;SDS011;12384;48.112;18.418;2023-03-31T11:53:57;11.33;;;10.63;;
24259;SDS011;12384;48.112;18.418;2023-03-31T11:56:29;14.90;;;13.40;;
24259;SDS011;12384;48.112;18.418;2023-03-31T11:59:02;10.90;;;10.20;;
24259;SDS011;12384;48.112;18.418;2023-03-31T12:01:35;11.23;;;10.43;;
24259;SDS011;12384;48.112;18.418;2023-03-31T12:04:14;10.93;;;10.23;;
24259;SDS011;12384;48.112;18.418;2023-03-31T12:06:52;12.43;;;11.33;;
24259;SDS011;12384;48.112;18.418;2023-03-31T12:09:29;13.60;;;12.47;;
24259;SDS011;12384;48.112;18.418;2023-03-31T12:12:05;14.90;;;13.63;;
24259;SDS011;12384;48.112;18.418;2023-03-31T12:14:40;13.47;;;12.27;;
24259;SDS011;12384;48.112;18.418;2023-03-31T12:17:16;12.73;;;11.63;;
24259;SDS011;12384;48.112;18.418;2023-03-31T12:19:48;12.97;;;11.77;;
24259;SDS011;12384;48.112;18.418;2023-03-31T12:22:21;12.10;;;11.30;;
24259;SDS011;12384;48.112;18.418;2023-03-31T12:24:53;10.93;;;10.23;;
24259;SDS011;12384;48.112;18.418;2023-03-31T12:27:22;11.27;;;10.57;;
24259;SDS011;12384;48.112;18.418;2023-03-31T12:29:55;11.23;;;10.53;;
24259;SDS011;12384;48.112;18.418;2023-03-31T12:32:28;10.00;;;9.40;;
24259;SDS011;12384;48.112;18.418;2023-03-31T12:35:04;11.60;;;10.70;;
24259;SDS011;12384;48.112;18.418;2023-03-31T12:37:54;12.00;;;11.20;;
24259;SDS011;12384;48.112;18.418;2023-03-31T12:40:44;11.13;;;10.43;;
24259;SDS011;12384;48.112;18.418;2023-03-31T12:43:22;10.60;;;9.80;;
24259;SDS011;12384;48.112;18.418;2023-03-31T12:46:01;10.73;;;10.03;;
24259;SDS011;12384;48.112;18.418;2023-03-31T12:48:50;11.67;;;10.87;;
24259;SDS011;12384;48.112;18.418;2023-03-31T12:51:33;11.77;;;10.97;;
24259;SDS011;12384;48.112;18.418;2023-03-31T12:54:15;11.07;;;10.30;;
24259;SDS011;12384;48.112;18.418;2023-03-31T12:57:03;11.27;;;10.57;;
24259;SDS011;12384;48.112;18.418;2023-03-31T12:59:42;11.90;;;11.10;;
24259;SDS011;12384;48.112;18.418;2023-03-31T13:02:24;11.60;;;10.80;;
24259;SDS011;12384;48.112;18.418;2023-03-31T13:04:53;11.70;;;10.90;;
24259;SDS011;12384;48.112;18.418;2023-03-31T13:07:36;11.20;;;10.50;;
24259;SDS011;12384;48.112;18.418;2023-03-31T13:10:27;9.98;;;9.40;;
24259;SDS011;12384;48.112;18.418;2023-03-31T13:12:59;11.13;;;10.43;;
24259;SDS011;12384;48.112;18.418;2023-03-31T13:15:32;11.23;;;10.52;;
24259;SDS011;12384;48.112;18.418;2023-03-31T13:18:01;11.68;;;10.95;;
24259;SDS011;12384;48.112;18.418;2023-03-31T13:20:32;11.45;;;10.75;;
24259;SDS011;12384;48.112;18.418;2023-03-31T13:23:05;10.93;;;10.30;;
24259;SDS011;12384;48.112;18.418;2023-03-31T13:25:43;11.70;;;10.93;;
24259;SDS011;12384;48.112;18.418;2023-03-31T13:28:25;10.75;;;10.05;;
24259;SDS011;12384;48.112;18.418;2023-03-31T13:31:08;11.30;;;10.50;;
24259;SDS011;12384;48.112;18.418;2023-03-31T13:33:42;11.70;;;11.00;;
24259;SDS011;12384;48.112;18.418;2023-03-31T13:36:18;11.55;;;10.85;;
24259;SDS011;12384;48.112;18.418;2023-03-31T13:39:06;11.93;;;11.03;;
24259;SDS011;12384;48.112;18.418;2023-03-31T13:41:54;11.52;;;10.65;;
24259;SDS011;12384;48.112;18.418;2023-03-31T13:44:47;11.50;;;10.60;;
24259;SDS011;12384;48.112;18.418;2023-03-31T13:50:44;12.03;;;11.13;;
24259;SDS011;12384;48.112;18.418;2023-03-31T13:53:27;11.80;;;10.93;;
24259;SDS011;12384;48.112;18.418;2023-03-31T13:56:32;11.90;;;11.00;;
24259;SDS011;12384;48.112;18.418;2023-03-31T14:02:53;12.40;;;11.67;;
24259;SDS011;12384;48.112;18.418;2023-03-31T14:05:33;11.90;;;11.13;;
24259;SDS011;12384;48.112;18.418;2023-03-31T14:08:05;12.77;;;11.93;;
24259;SDS011;12384;48.112;18.418;2023-03-31T14:10:38;12.13;;;11.33;;
24259;SDS011;12384;48.112;18.418;2023-03-31T14:13:11;12.83;;;11.97;;
24259;SDS011;12384;48.112;18.418;2023-03-31T14:15:45;12.03;;;11.20;;
24259;SDS011;12384;48.112;18.418;2023-03-31T14:18:17;13.37;;;12.00;;
24259;SDS011;12384;48.112;18.418;2023-03-31T14:20:55;12.57;;;11.60;;
24259;SDS011;12384;48.112;18.418;2023-03-31T14:23:39;12.27;;;11.33;;
24259;SDS011;12384;48.112;18.418;2023-03-31T14:26:19;12.57;;;11.57;;
24259;SDS011;12384;48.112;18.418;2023-03-31T14:29:01;10.57;;;9.87;;
24259;SDS011;12384;48.112;18.418;2023-03-31T14:31:39;10.87;;;9.87;;
24259;SDS011;12384;48.112;18.418;2023-03-31T14:34:21;10.90;;;10.00;;
24259;SDS011;12384;48.112;18.418;2023-03-31T14:37:08;13.50;;;12.40;;
24259;SDS011;12384;48.112;18.418;2023-03-31T14:39:43;11.63;;;10.77;;
24259;SDS011;12384;48.112;18.418;2023-03-31T14:42:15;12.27;;;11.37;;
24259;SDS011;12384;48.112;18.418;2023-03-31T14:44:46;12.30;;;11.23;;
24259;SDS011;12384;48.112;18.418;2023-03-31T14:47:15;14.23;;;12.93;;
24259;SDS011;12384;48.112;18.418;2023-03-31T14:49:57;13.20;;;12.00;;
24259;SDS011;12384;48.112;18.418;2023-03-31T14:52:29;13.47;;;12.33;;
24259;SDS011;12384;48.112;18.418;2023-03-31T14:54:59;11.90;;;10.90;;
24259;SDS011;12384;48.112;18.418;2023-03-31T14:57:28;13.17;;;12.13;;
24259;SDS011;12384;48.112;18.418;2023-03-31T15:00:02;12.67;;;11.40;;
24259;SDS011;12384;48.112;18.418;2023-03-31T15:02:34;12.53;;;11.43;;
24259;SDS011;12384;48.112;18.418;2023-03-31T15:05:05;11.63;;;10.83;;